This is the latest recevied weather packets stored in our database for station/object K4WCH. If no packets are shown the sender has not sent any weather packets the latest 10 day(s).
| Time | Temp. | Humidity | Pressure | Rain* | Wind** | Luminosity | Snow |
|---|---|---|---|---|---|---|---|
| 1788282279 | 27.22° C | 86% | 1017.8 hPa | 0.51 mm | - | 535 W/m² | - |
| 1788281978 | 27.22° C | 86% | 1017.7 hPa | 0.51 mm | - | 532 W/m² | - |
| 1788281673 | 27.22° C | 87% | 1018.1 hPa | 0.51 mm | - | 387 W/m² | - |
| 1788281369 | 27.22° C | 86% | 1017.8 hPa | 0.51 mm | - | 342 W/m² | - |
| 1788281064 | 27.78° C | 84% | 1017.9 hPa | 0 mm | - | 330 W/m² | - |
| 1788280759 | 27.22° C | 83% | 1017.8 hPa | 0 mm | - | 292 W/m² | - |
| 1788280454 | 27.22° C | 82% | 1017.8 hPa | 0 mm | - | 252 W/m² | - |
| 1788280148 | 27.22° C | 85% | 1017.7 hPa | 0 mm | - | 256 W/m² | - |
| 1788279848 | 27.78° C | 83% | 1017.8 hPa | 0 mm | - | 250 W/m² | - |
| 1788279548 | 27.78° C | 82% | 1017.9 hPa | 0 mm | - | 303 W/m² | - |
| 1788279247 | 27.22° C | 83% | 1018.1 hPa | 0 mm | - | 324 W/m² | - |
| 1788278942 | 27.78° C | 81% | 1018.2 hPa | 0 mm | - | 323 W/m² | - |
| 1788278639 | 28.33° C | 81% | 1018.1 hPa | 0 mm | - | 323 W/m² | - |
| 1788278338 | 28.89° C | 81% | 1018.1 hPa | 1.27 mm | - | 358 W/m² | - |
| 1788278032 | 29.44° C | 85% | 1018 hPa | 1.78 mm | - | 1028 W/m² | - |
| 1788277729 | 29.44° C | 81% | 1018.1 hPa | 0 mm | - | 593 W/m² | - |
| 1788277428 | 30° C | 77% | 1017.8 hPa | 0 mm | - | 404 W/m² | - |
| 1788277123 | 31.67° C | 71% | 1017.6 hPa | 0 mm | - | 398 W/m² | - |
| 1788276818 | 31.67° C | 71% | 1017.6 hPa | 0 mm | - | 1090 W/m² | - |
| 1788276516 | 30.56° C | 73% | 1017.6 hPa | 0 mm | - | 1024 W/m² | - |
| 1788276216 | 30.56° C | 71% | 1017.7 hPa | 0 mm | - | 391 W/m² | - |
| 1788275912 | 31.11° C | 70% | 1017.7 hPa | 0 mm | - | 247 W/m² | - |
| 1788275606 | 30.56° C | 71% | 1017.6 hPa | 0 mm | - | 957 W/m² | - |
| 1788275306 | 30.56° C | 74% | 1017.7 hPa | 0 mm | - | 205 W/m² | - |
| 1788275003 | 30.56° C | 72% | 1017.6 hPa | 0 mm | - | 476 W/m² | - |
* Rain latest hour (hover to see other rain measurements)
** Current wind speed in m/s (hover to see current wind gust speed)